EGGP/LPL METAR and TAF weather

Enter ICAO airport designator
Station Type Date Time Source
EGGP METAR 2022/06/27 17:50 UTC NOAA

EGGP 271750Z 23014KT 9999 FEW048 16/05 Q1015


Station Type Date Time Source
EGGP Decoded METAR 2022/06/27 17:50 UTC NOAA

Liverpool Airport , United Kingdom (EGGP) 53-20N 002-51W
Jun 27, 2022 - 01:50 PM EDT / 2022.06.27 1750 UTC
Wind: from the SW (230 degrees) at 16 MPH (14 KT):0
Visibility: greater than 7 mile(s):0
Sky conditions: mostly clear
Temperature: 60 F (16 C)
Dew Point: 41 F (5 C)
Relative Humidity: 47%
Pressure (altimeter): 29.97 in. Hg (1015 hPa)
ob: EGGP 271750Z 23014KT 9999 FEW048 16/05 Q1015
cycle: 18

Station Type Date Time Source
EGGP TAF 2022/06/27 18:09 UTC NOAA

TAF EGGP 271700Z 2718/2818 25015KT 9999 SCT045
BECMG 2720/2723 19010KT
BECMG 2809/2812 18018G28KT PROB30
TEMPO 2816/2818 9000 -RA BKN014

Example: see airport list